Terminal Aerodrome Forecast
Issued by NWS Chicago, IL

Home | Current Version | Previous Version | Text Only | Print | Product List | Glossary On
Versions: 1 2 3 4 5 6 7 8 9 10 11 12 13 14 15 16 17 18 19 20 21 22 23 24 25 26 27 28 29 30
591
FTUS43 KLOT 291727
TAFRFD
TAF
KRFD 291727Z 2918/3018 04005KT P6SM VCTS SCT015CB OVC025
      TEMPO 2918/2922 VRB12G18KT 3SM -TSRA BKN025CB
     FM300100 04006KT P6SM VCSH BKN040
     FM301500 07010KT P6SM BKN045=

USA.gov is the U.S. government's official web portal to all federal, state and local government web resources and services.